sensor_id;sensor_type;location;lat;lon;timestamp;P1;durP1;ratioP1;P2;durP2;ratioP2
60851;SDS011;48553;50.766;2.900;2022-10-16T00:00:00;2.50;;;0.75;;
60851;SDS011;48553;50.766;2.900;2022-10-16T00:03:01;2.85;;;0.70;;
60851;SDS011;48553;50.766;2.900;2022-10-16T00:06:02;2.15;;;0.50;;
60851;SDS011;48553;50.766;2.900;2022-10-16T00:09:03;1.25;;;0.60;;
60851;SDS011;48553;50.766;2.900;2022-10-16T00:12:04;3.63;;;0.63;;
60851;SDS011;48553;50.766;2.900;2022-10-16T00:15:06;2.53;;;0.70;;
60851;SDS011;48553;50.766;2.900;2022-10-16T00:18:07;1.90;;;0.63;;
60851;SDS011;48553;50.766;2.900;2022-10-16T00:21:12;2.10;;;0.68;;
60851;SDS011;48553;50.766;2.900;2022-10-16T00:24:14;3.05;;;0.57;;
60851;SDS011;48553;50.766;2.900;2022-10-16T00:27:14;1.40;;;0.60;;
60851;SDS011;48553;50.766;2.900;2022-10-16T00:30:15;2.78;;;0.60;;
60851;SDS011;48553;50.766;2.900;2022-10-16T00:33:15;1.85;;;0.75;;
60851;SDS011;48553;50.766;2.900;2022-10-16T00:36:17;1.80;;;0.70;;
60851;SDS011;48553;50.766;2.900;2022-10-16T00:39:19;3.38;;;0.60;;
60851;SDS011;48553;50.766;2.900;2022-10-16T00:42:20;2.33;;;0.55;;
60851;SDS011;48553;50.766;2.900;2022-10-16T00:45:20;1.30;;;0.68;;
60851;SDS011;48553;50.766;2.900;2022-10-16T00:48:21;2.28;;;0.60;;
60851;SDS011;48553;50.766;2.900;2022-10-16T00:51:23;1.85;;;0.50;;
60851;SDS011;48553;50.766;2.900;2022-10-16T00:54:29;1.73;;;0.60;;
60851;SDS011;48553;50.766;2.900;2022-10-16T00:57:32;2.97;;;0.68;;
60851;SDS011;48553;50.766;2.900;2022-10-16T01:00:32;4.00;;;0.70;;
60851;SDS011;48553;50.766;2.900;2022-10-16T01:03:34;2.97;;;0.85;;
60851;SDS011;48553;50.766;2.900;2022-10-16T01:06:40;1.13;;;0.60;;
60851;SDS011;48553;50.766;2.900;2022-10-16T01:20:10;2.42;;;0.65;;
60851;SDS011;48553;50.766;2.900;2022-10-16T01:29:52;2.75;;;0.80;;
60851;SDS011;48553;50.766;2.900;2022-10-16T01:33:16;2.60;;;0.82;;
60851;SDS011;48553;50.766;2.900;2022-10-16T01:36:21;2.05;;;0.70;;
60851;SDS011;48553;50.766;2.900;2022-10-16T01:39:28;1.60;;;0.70;;
60851;SDS011;48553;50.766;2.900;2022-10-16T01:42:34;2.33;;;0.80;;
60851;SDS011;48553;50.766;2.900;2022-10-16T01:45:37;1.30;;;0.68;;
60851;SDS011;48553;50.766;2.900;2022-10-16T01:48:39;2.40;;;0.70;;
60851;SDS011;48553;50.766;2.900;2022-10-16T01:51:41;2.42;;;0.80;;
60851;SDS011;48553;50.766;2.900;2022-10-16T01:54:46;3.17;;;0.98;;
60851;SDS011;48553;50.766;2.900;2022-10-16T01:57:50;2.88;;;0.70;;
60851;SDS011;48553;50.766;2.900;2022-10-16T02:00:53;1.63;;;0.80;;
60851;SDS011;48553;50.766;2.900;2022-10-16T02:03:55;1.60;;;0.70;;
60851;SDS011;48553;50.766;2.900;2022-10-16T02:06:59;2.15;;;0.85;;
60851;SDS011;48553;50.766;2.900;2022-10-16T02:10:00;3.55;;;0.85;;
60851;SDS011;48553;50.766;2.900;2022-10-16T02:16:32;2.13;;;0.75;;
60851;SDS011;48553;50.766;2.900;2022-10-16T02:19:38;1.53;;;0.80;;
60851;SDS011;48553;50.766;2.900;2022-10-16T02:22:39;2.63;;;0.80;;
60851;SDS011;48553;50.766;2.900;2022-10-16T02:28:45;1.95;;;0.90;;
60851;SDS011;48553;50.766;2.900;2022-10-16T02:31:57;1.73;;;0.90;;
60851;SDS011;48553;50.766;2.900;2022-10-16T02:35:00;4.00;;;0.80;;
60851;SDS011;48553;50.766;2.900;2022-10-16T02:38:02;1.52;;;0.77;;
60851;SDS011;48553;50.766;2.900;2022-10-16T02:41:04;2.22;;;0.70;;
60851;SDS011;48553;50.766;2.900;2022-10-16T02:44:05;1.48;;;0.70;;
60851;SDS011;48553;50.766;2.900;2022-10-16T02:47:05;2.38;;;0.70;;
60851;SDS011;48553;50.766;2.900;2022-10-16T02:50:06;1.90;;;0.70;;
60851;SDS011;48553;50.766;2.900;2022-10-16T02:53:07;2.42;;;0.75;;
60851;SDS011;48553;50.766;2.900;2022-10-16T02:56:07;1.63;;;0.70;;
60851;SDS011;48553;50.766;2.900;2022-10-16T02:59:08;2.25;;;0.80;;
60851;SDS011;48553;50.766;2.900;2022-10-16T03:02:08;2.75;;;0.90;;
60851;SDS011;48553;50.766;2.900;2022-10-16T03:05:09;3.08;;;0.80;;
60851;SDS011;48553;50.766;2.900;2022-10-16T03:08:10;1.90;;;0.70;;
60851;SDS011;48553;50.766;2.900;2022-10-16T03:11:11;1.38;;;0.70;;
60851;SDS011;48553;50.766;2.900;2022-10-16T03:14:11;3.08;;;0.70;;
60851;SDS011;48553;50.766;2.900;2022-10-16T03:17:12;1.83;;;0.60;;
60851;SDS011;48553;50.766;2.900;2022-10-16T03:20:13;3.10;;;0.70;;
60851;SDS011;48553;50.766;2.900;2022-10-16T03:23:13;2.25;;;0.77;;
60851;SDS011;48553;50.766;2.900;2022-10-16T03:26:14;3.50;;;1.00;;
60851;SDS011;48553;50.766;2.900;2022-10-16T03:29:14;4.30;;;0.70;;
60851;SDS011;48553;50.766;2.900;2022-10-16T03:32:14;2.83;;;0.70;;
60851;SDS011;48553;50.766;2.900;2022-10-16T03:35:15;1.65;;;0.68;;
60851;SDS011;48553;50.766;2.900;2022-10-16T03:38:15;2.55;;;0.85;;
60851;SDS011;48553;50.766;2.900;2022-10-16T03:41:16;2.33;;;0.70;;
60851;SDS011;48553;50.766;2.900;2022-10-16T03:44:16;3.72;;;0.60;;
60851;SDS011;48553;50.766;2.900;2022-10-16T03:47:17;1.50;;;0.70;;
60851;SDS011;48553;50.766;2.900;2022-10-16T03:50:21;2.42;;;0.70;;
60851;SDS011;48553;50.766;2.900;2022-10-16T03:53:21;3.60;;;0.88;;
60851;SDS011;48553;50.766;2.900;2022-10-16T03:56:22;2.00;;;0.63;;
60851;SDS011;48553;50.766;2.900;2022-10-16T03:59:22;4.60;;;0.90;;
60851;SDS011;48553;50.766;2.900;2022-10-16T04:02:23;3.53;;;0.63;;
60851;SDS011;48553;50.766;2.900;2022-10-16T04:05:23;2.80;;;0.73;;
60851;SDS011;48553;50.766;2.900;2022-10-16T04:08:24;1.80;;;0.70;;
60851;SDS011;48553;50.766;2.900;2022-10-16T04:11:24;3.17;;;0.70;;
60851;SDS011;48553;50.766;2.900;2022-10-16T04:14:25;3.67;;;0.70;;
60851;SDS011;48553;50.766;2.900;2022-10-16T04:17:25;3.97;;;0.80;;
60851;SDS011;48553;50.766;2.900;2022-10-16T04:20:25;2.08;;;0.60;;
60851;SDS011;48553;50.766;2.900;2022-10-16T04:23:26;1.80;;;0.70;;
60851;SDS011;48553;50.766;2.900;2022-10-16T04:26:26;1.40;;;0.52;;
60851;SDS011;48553;50.766;2.900;2022-10-16T04:29:27;2.72;;;0.70;;
60851;SDS011;48553;50.766;2.900;2022-10-16T04:32:27;3.03;;;0.80;;
60851;SDS011;48553;50.766;2.900;2022-10-16T04:35:27;3.47;;;0.88;;
60851;SDS011;48553;50.766;2.900;2022-10-16T04:38:28;2.97;;;0.88;;
60851;SDS011;48553;50.766;2.900;2022-10-16T04:41:29;3.58;;;0.80;;
60851;SDS011;48553;50.766;2.900;2022-10-16T04:44:29;3.05;;;0.80;;
60851;SDS011;48553;50.766;2.900;2022-10-16T04:47:29;5.53;;;0.90;;
60851;SDS011;48553;50.766;2.900;2022-10-16T04:50:30;4.03;;;0.80;;
60851;SDS011;48553;50.766;2.900;2022-10-16T04:53:30;2.42;;;0.85;;
60851;SDS011;48553;50.766;2.900;2022-10-16T04:56:31;2.83;;;0.77;;
60851;SDS011;48553;50.766;2.900;2022-10-16T04:59:31;3.38;;;0.98;;
60851;SDS011;48553;50.766;2.900;2022-10-16T05:02:32;2.55;;;0.95;;
60851;SDS011;48553;50.766;2.900;2022-10-16T05:05:32;2.38;;;0.80;;
60851;SDS011;48553;50.766;2.900;2022-10-16T05:08:33;3.40;;;0.85;;
60851;SDS011;48553;50.766;2.900;2022-10-16T05:11:34;3.65;;;0.90;;
60851;SDS011;48553;50.766;2.900;2022-10-16T05:14:35;2.90;;;0.80;;
60851;SDS011;48553;50.766;2.900;2022-10-16T05:17:35;2.78;;;0.90;;
60851;SDS011;48553;50.766;2.900;2022-10-16T05:20:36;1.77;;;0.75;;
60851;SDS011;48553;50.766;2.900;2022-10-16T05:23:36;2.38;;;0.80;;
60851;SDS011;48553;50.766;2.900;2022-10-16T05:26:36;2.53;;;0.90;;
60851;SDS011;48553;50.766;2.900;2022-10-16T05:29:37;2.17;;;0.77;;
60851;SDS011;48553;50.766;2.900;2022-10-16T05:32:37;2.38;;;0.80;;
60851;SDS011;48553;50.766;2.900;2022-10-16T05:35:37;3.10;;;0.82;;
60851;SDS011;48553;50.766;2.900;2022-10-16T05:38:38;1.95;;;0.73;;
60851;SDS011;48553;50.766;2.900;2022-10-16T05:41:38;3.50;;;0.90;;
60851;SDS011;48553;50.766;2.900;2022-10-16T05:44:39;2.30;;;0.68;;
60851;SDS011;48553;50.766;2.900;2022-10-16T05:47:39;4.93;;;0.88;;
60851;SDS011;48553;50.766;2.900;2022-10-16T05:50:40;2.10;;;0.85;;
60851;SDS011;48553;50.766;2.900;2022-10-16T05:53:40;2.72;;;0.70;;
60851;SDS011;48553;50.766;2.900;2022-10-16T05:56:41;4.13;;;0.98;;
60851;SDS011;48553;50.766;2.900;2022-10-16T05:59:41;2.03;;;0.75;;
60851;SDS011;48553;50.766;2.900;2022-10-16T06:02:43;2.20;;;0.70;;
60851;SDS011;48553;50.766;2.900;2022-10-16T06:05:43;4.63;;;0.80;;
60851;SDS011;48553;50.766;2.900;2022-10-16T06:08:44;1.90;;;0.80;;
60851;SDS011;48553;50.766;2.900;2022-10-16T06:11:45;3.83;;;0.90;;
60851;SDS011;48553;50.766;2.900;2022-10-16T06:14:46;4.45;;;0.98;;
60851;SDS011;48553;50.766;2.900;2022-10-16T06:17:46;2.17;;;0.65;;
60851;SDS011;48553;50.766;2.900;2022-10-16T06:20:47;3.60;;;1.08;;
60851;SDS011;48553;50.766;2.900;2022-10-16T06:23:47;3.92;;;1.00;;
60851;SDS011;48553;50.766;2.900;2022-10-16T06:26:48;1.70;;;0.70;;
60851;SDS011;48553;50.766;2.900;2022-10-16T06:29:48;2.25;;;0.88;;
60851;SDS011;48553;50.766;2.900;2022-10-16T06:32:49;1.65;;;0.80;;
60851;SDS011;48553;50.766;2.900;2022-10-16T06:35:49;2.80;;;0.90;;
60851;SDS011;48553;50.766;2.900;2022-10-16T06:38:50;2.78;;;0.85;;
60851;SDS011;48553;50.766;2.900;2022-10-16T06:41:50;3.22;;;0.98;;
60851;SDS011;48553;50.766;2.900;2022-10-16T06:44:51;5.90;;;1.00;;
60851;SDS011;48553;50.766;2.900;2022-10-16T06:47:51;3.55;;;1.30;;
60851;SDS011;48553;50.766;2.900;2022-10-16T06:51:11;2.53;;;1.30;;
60851;SDS011;48553;50.766;2.900;2022-10-16T06:54:14;3.55;;;1.40;;
60851;SDS011;48553;50.766;2.900;2022-10-16T06:57:15;3.30;;;1.90;;
60851;SDS011;48553;50.766;2.900;2022-10-16T07:00:16;2.85;;;1.73;;
60851;SDS011;48553;50.766;2.900;2022-10-16T07:03:16;4.53;;;2.15;;
60851;SDS011;48553;50.766;2.900;2022-10-16T07:06:17;5.82;;;2.30;;
60851;SDS011;48553;50.766;2.900;2022-10-16T07:09:20;4.93;;;2.55;;
60851;SDS011;48553;50.766;2.900;2022-10-16T07:12:20;6.68;;;2.60;;
60851;SDS011;48553;50.766;2.900;2022-10-16T07:15:21;4.32;;;2.30;;
60851;SDS011;48553;50.766;2.900;2022-10-16T07:18:21;5.18;;;2.60;;
60851;SDS011;48553;50.766;2.900;2022-10-16T07:21:27;4.05;;;2.30;;
60851;SDS011;48553;50.766;2.900;2022-10-16T07:24:29;3.03;;;1.90;;
60851;SDS011;48553;50.766;2.900;2022-10-16T07:27:30;5.47;;;2.70;;
60851;SDS011;48553;50.766;2.900;2022-10-16T07:30:30;7.63;;;3.28;;
60851;SDS011;48553;50.766;2.900;2022-10-16T07:33:36;4.85;;;2.85;;
60851;SDS011;48553;50.766;2.900;2022-10-16T07:36:38;5.25;;;2.67;;
60851;SDS011;48553;50.766;2.900;2022-10-16T07:39:39;4.63;;;2.35;;
60851;SDS011;48553;50.766;2.900;2022-10-16T07:42:39;4.47;;;2.40;;
60851;SDS011;48553;50.766;2.900;2022-10-16T07:45:49;4.35;;;2.30;;
60851;SDS011;48553;50.766;2.900;2022-10-16T07:48:50;6.40;;;2.28;;
60851;SDS011;48553;50.766;2.900;2022-10-16T07:51:51;3.75;;;1.65;;
60851;SDS011;48553;50.766;2.900;2022-10-16T07:54:51;6.07;;;1.70;;
60851;SDS011;48553;50.766;2.900;2022-10-16T07:57:51;2.92;;;1.27;;
60851;SDS011;48553;50.766;2.900;2022-10-16T08:00:52;3.83;;;1.33;;
60851;SDS011;48553;50.766;2.900;2022-10-16T08:03:52;3.88;;;1.60;;
60851;SDS011;48553;50.766;2.900;2022-10-16T08:06:53;3.05;;;1.30;;
60851;SDS011;48553;50.766;2.900;2022-10-16T08:09:54;2.08;;;1.10;;
60851;SDS011;48553;50.766;2.900;2022-10-16T08:12:56;4.88;;;1.33;;
60851;SDS011;48553;50.766;2.900;2022-10-16T08:15:57;3.97;;;1.30;;
60851;SDS011;48553;50.766;2.900;2022-10-16T08:18:57;3.33;;;1.35;;
60851;SDS011;48553;50.766;2.900;2022-10-16T08:21:58;4.38;;;1.40;;
60851;SDS011;48553;50.766;2.900;2022-10-16T08:24:58;3.55;;;1.30;;
60851;SDS011;48553;50.766;2.900;2022-10-16T08:27:59;4.25;;;1.23;;
60851;SDS011;48553;50.766;2.900;2022-10-16T08:31:09;4.38;;;1.50;;
60851;SDS011;48553;50.766;2.900;2022-10-16T08:34:11;3.83;;;1.25;;
60851;SDS011;48553;50.766;2.900;2022-10-16T08:37:11;5.18;;;1.08;;
60851;SDS011;48553;50.766;2.900;2022-10-16T08:46:34;6.07;;;1.20;;
60851;SDS011;48553;50.766;2.900;2022-10-16T08:49:38;6.28;;;1.30;;
60851;SDS011;48553;50.766;2.900;2022-10-16T08:52:43;3.42;;;0.90;;
60851;SDS011;48553;50.766;2.900;2022-10-16T08:55:51;4.55;;;1.20;;
60851;SDS011;48553;50.766;2.900;2022-10-16T08:58:53;4.38;;;1.15;;
60851;SDS011;48553;50.766;2.900;2022-10-16T09:01:54;4.03;;;1.20;;
60851;SDS011;48553;50.766;2.900;2022-10-16T09:08:01;4.03;;;1.10;;
60851;SDS011;48553;50.766;2.900;2022-10-16T09:21:33;44.95;;;6.60;;
60851;SDS011;48553;50.766;2.900;2022-10-16T09:24:36;67.38;;;9.80;;
60851;SDS011;48553;50.766;2.900;2022-10-16T09:27:37;83.65;;;11.32;;
60851;SDS011;48553;50.766;2.900;2022-10-16T09:30:37;106.03;;;15.15;;
60851;SDS011;48553;50.766;2.900;2022-10-16T09:33:39;106.45;;;15.45;;
60851;SDS011;48553;50.766;2.900;2022-10-16T09:36:42;96.20;;;12.82;;
60851;SDS011;48553;50.766;2.900;2022-10-16T09:39:45;78.18;;;11.52;;
60851;SDS011;48553;50.766;2.900;2022-10-16T09:42:47;61.47;;;9.57;;
60851;SDS011;48553;50.766;2.900;2022-10-16T09:45:57;53.80;;;8.07;;
60851;SDS011;48553;50.766;2.900;2022-10-16T09:49:00;36.05;;;5.78;;
60851;SDS011;48553;50.766;2.900;2022-10-16T09:52:04;23.23;;;5.25;;
60851;SDS011;48553;50.766;2.900;2022-10-16T09:55:16;21.30;;;4.00;;
60851;SDS011;48553;50.766;2.900;2022-10-16T09:58:18;15.55;;;3.60;;
60851;SDS011;48553;50.766;2.900;2022-10-16T10:01:22;20.85;;;3.35;;
60851;SDS011;48553;50.766;2.900;2022-10-16T10:04:37;11.93;;;2.78;;
60851;SDS011;48553;50.766;2.900;2022-10-16T10:07:42;10.85;;;2.53;;
60851;SDS011;48553;50.766;2.900;2022-10-16T10:10:46;27.30;;;4.07;;
60851;SDS011;48553;50.766;2.900;2022-10-16T10:13:48;21.70;;;3.70;;
60851;SDS011;48553;50.766;2.900;2022-10-16T10:16:49;27.77;;;4.35;;
60851;SDS011;48553;50.766;2.900;2022-10-16T10:22:56;20.77;;;3.42;;
60851;SDS011;48553;50.766;2.900;2022-10-16T10:32:26;29.52;;;5.05;;
60851;SDS011;48553;50.766;2.900;2022-10-16T10:35:45;63.05;;;9.15;;
60851;SDS011;48553;50.766;2.900;2022-10-16T10:39:08;61.33;;;8.13;;
60851;SDS011;48553;50.766;2.900;2022-10-16T10:45:52;36.13;;;6.50;;
60851;SDS011;48553;50.766;2.900;2022-10-16T10:56:05;19.60;;;3.42;;
60851;SDS011;48553;50.766;2.900;2022-10-16T11:05:44;10.40;;;2.50;;
60851;SDS011;48553;50.766;2.900;2022-10-16T11:08:51;11.07;;;2.40;;
60851;SDS011;48553;50.766;2.900;2022-10-16T11:11:58;12.75;;;2.20;;
60851;SDS011;48553;50.766;2.900;2022-10-16T11:15:07;10.70;;;2.05;;
60851;SDS011;48553;50.766;2.900;2022-10-16T11:19:18;7.15;;;1.60;;
60851;SDS011;48553;50.766;2.900;2022-10-16T11:28:15;16.42;;;2.92;;
60851;SDS011;48553;50.766;2.900;2022-10-16T11:37:50;8.70;;;1.98;;
60851;SDS011;48553;50.766;2.900;2022-10-16T11:40:54;8.30;;;1.95;;
60851;SDS011;48553;50.766;2.900;2022-10-16T11:50:23;5.35;;;1.20;;
60851;SDS011;48553;50.766;2.900;2022-10-16T11:56:43;7.22;;;1.23;;
60851;SDS011;48553;50.766;2.900;2022-10-16T11:59:55;3.63;;;1.08;;
60851;SDS011;48553;50.766;2.900;2022-10-16T12:09:50;4.25;;;1.20;;
60851;SDS011;48553;50.766;2.900;2022-10-16T12:12:50;3.83;;;1.00;;
60851;SDS011;48553;50.766;2.900;2022-10-16T12:15:50;5.13;;;1.08;;
60851;SDS011;48553;50.766;2.900;2022-10-16T12:19:02;3.33;;;1.02;;
60851;SDS011;48553;50.766;2.900;2022-10-16T12:22:17;3.60;;;1.20;;
60851;SDS011;48553;50.766;2.900;2022-10-16T12:25:20;2.90;;;0.90;;
60851;SDS011;48553;50.766;2.900;2022-10-16T12:28:25;6.43;;;2.77;;
60851;SDS011;48553;50.766;2.900;2022-10-16T12:31:35;5.50;;;1.25;;
60851;SDS011;48553;50.766;2.900;2022-10-16T12:34:43;2.92;;;0.90;;
60851;SDS011;48553;50.766;2.900;2022-10-16T12:37:44;5.38;;;2.75;;
60851;SDS011;48553;50.766;2.900;2022-10-16T12:40:46;4.57;;;0.95;;
60851;SDS011;48553;50.766;2.900;2022-10-16T12:43:56;3.70;;;1.27;;
60851;SDS011;48553;50.766;2.900;2022-10-16T12:46:57;2.97;;;0.80;;
60851;SDS011;48553;50.766;2.900;2022-10-16T12:49:58;3.28;;;1.70;;
60851;SDS011;48553;50.766;2.900;2022-10-16T12:52:59;3.22;;;1.10;;
60851;SDS011;48553;50.766;2.900;2022-10-16T13:15:58;4.32;;;1.50;;
60851;SDS011;48553;50.766;2.900;2022-10-16T13:26:35;2.08;;;0.80;;
60851;SDS011;48553;50.766;2.900;2022-10-16T13:29:46;3.08;;;0.90;;
60851;SDS011;48553;50.766;2.900;2022-10-16T13:35:59;6.97;;;5.63;;
60851;SDS011;48553;50.766;2.900;2022-10-16T13:42:11;7.15;;;5.07;;
60851;SDS011;48553;50.766;2.900;2022-10-16T13:45:22;3.33;;;2.28;;
60851;SDS011;48553;50.766;2.900;2022-10-16T13:48:25;5.50;;;3.33;;
60851;SDS011;48553;50.766;2.900;2022-10-16T13:51:26;4.53;;;1.88;;
60851;SDS011;48553;50.766;2.900;2022-10-16T13:54:27;7.93;;;4.82;;
60851;SDS011;48553;50.766;2.900;2022-10-16T13:57:28;3.65;;;1.42;;
60851;SDS011;48553;50.766;2.900;2022-10-16T14:00:29;3.88;;;0.82;;
60851;SDS011;48553;50.766;2.900;2022-10-16T14:03:30;2.40;;;0.70;;
60851;SDS011;48553;50.766;2.900;2022-10-16T14:06:32;3.33;;;2.20;;
60851;SDS011;48553;50.766;2.900;2022-10-16T14:09:33;2.28;;;1.02;;
60851;SDS011;48553;50.766;2.900;2022-10-16T14:12:35;2.20;;;1.17;;
60851;SDS011;48553;50.766;2.900;2022-10-16T14:15:35;2.00;;;0.88;;
60851;SDS011;48553;50.766;2.900;2022-10-16T14:18:37;2.75;;;1.00;;
60851;SDS011;48553;50.766;2.900;2022-10-16T14:21:40;3.88;;;2.63;;
60851;SDS011;48553;50.766;2.900;2022-10-16T14:24:41;2.72;;;0.95;;
60851;SDS011;48553;50.766;2.900;2022-10-16T14:27:41;3.00;;;1.13;;
60851;SDS011;48553;50.766;2.900;2022-10-16T14:30:55;3.28;;;1.35;;
60851;SDS011;48553;50.766;2.900;2022-10-16T14:33:57;2.55;;;0.70;;
60851;SDS011;48553;50.766;2.900;2022-10-16T14:36:58;2.50;;;0.52;;
60851;SDS011;48553;50.766;2.900;2022-10-16T14:40:14;3.45;;;0.73;;
60851;SDS011;48553;50.766;2.900;2022-10-16T14:43:34;2.88;;;0.80;;
60851;SDS011;48553;50.766;2.900;2022-10-16T14:46:38;4.20;;;0.93;;
60851;SDS011;48553;50.766;2.900;2022-10-16T14:49:41;4.70;;;0.90;;
60851;SDS011;48553;50.766;2.900;2022-10-16T14:52:42;4.70;;;0.90;;
60851;SDS011;48553;50.766;2.900;2022-10-16T14:55:43;1.73;;;0.50;;
60851;SDS011;48553;50.766;2.900;2022-10-16T14:58:44;2.10;;;0.80;;
60851;SDS011;48553;50.766;2.900;2022-10-16T15:01:45;2.90;;;0.75;;
60851;SDS011;48553;50.766;2.900;2022-10-16T15:04:46;3.20;;;0.80;;
60851;SDS011;48553;50.766;2.900;2022-10-16T15:07:47;3.60;;;0.90;;
60851;SDS011;48553;50.766;2.900;2022-10-16T15:10:49;4.25;;;1.00;;
60851;SDS011;48553;50.766;2.900;2022-10-16T15:13:49;2.90;;;0.88;;
60851;SDS011;48553;50.766;2.900;2022-10-16T15:16:49;2.85;;;0.88;;
60851;SDS011;48553;50.766;2.900;2022-10-16T15:19:50;3.65;;;1.20;;
60851;SDS011;48553;50.766;2.900;2022-10-16T15:22:51;2.25;;;0.90;;
60851;SDS011;48553;50.766;2.900;2022-10-16T15:25:53;2.67;;;1.02;;
60851;SDS011;48553;50.766;2.900;2022-10-16T15:28:54;3.55;;;1.02;;
60851;SDS011;48553;50.766;2.900;2022-10-16T15:31:55;2.85;;;0.90;;
60851;SDS011;48553;50.766;2.900;2022-10-16T15:34:55;2.85;;;0.88;;
60851;SDS011;48553;50.766;2.900;2022-10-16T15:37:56;3.80;;;0.82;;
60851;SDS011;48553;50.766;2.900;2022-10-16T15:40:57;3.00;;;1.17;;
60851;SDS011;48553;50.766;2.900;2022-10-16T15:43:57;3.53;;;1.00;;
60851;SDS011;48553;50.766;2.900;2022-10-16T15:46:58;2.45;;;1.10;;
60851;SDS011;48553;50.766;2.900;2022-10-16T15:49:58;3.33;;;1.10;;
60851;SDS011;48553;50.766;2.900;2022-10-16T15:52:59;3.67;;;1.00;;
60851;SDS011;48553;50.766;2.900;2022-10-16T15:56:05;2.65;;;1.10;;
60851;SDS011;48553;50.766;2.900;2022-10-16T15:59:07;4.00;;;1.30;;
60851;SDS011;48553;50.766;2.900;2022-10-16T16:02:08;2.58;;;1.20;;
60851;SDS011;48553;50.766;2.900;2022-10-16T16:05:09;2.35;;;1.05;;
60851;SDS011;48553;50.766;2.900;2022-10-16T16:08:11;3.35;;;1.25;;
60851;SDS011;48553;50.766;2.900;2022-10-16T16:11:14;3.83;;;1.20;;
60851;SDS011;48553;50.766;2.900;2022-10-16T16:14:15;3.65;;;1.17;;
60851;SDS011;48553;50.766;2.900;2022-10-16T16:17:16;2.85;;;1.27;;
60851;SDS011;48553;50.766;2.900;2022-10-16T16:20:17;1.85;;;1.08;;
60851;SDS011;48553;50.766;2.900;2022-10-16T16:23:17;3.58;;;1.30;;
60851;SDS011;48553;50.766;2.900;2022-10-16T16:29:27;4.30;;;1.60;;
60851;SDS011;48553;50.766;2.900;2022-10-16T16:32:27;3.72;;;1.52;;
60851;SDS011;48553;50.766;2.900;2022-10-16T16:35:28;2.55;;;1.50;;
60851;SDS011;48553;50.766;2.900;2022-10-16T16:38:28;5.53;;;1.60;;
60851;SDS011;48553;50.766;2.900;2022-10-16T16:41:29;3.97;;;1.80;;
60851;SDS011;48553;50.766;2.900;2022-10-16T16:44:30;3.13;;;1.70;;
60851;SDS011;48553;50.766;2.900;2022-10-16T16:47:31;3.30;;;1.42;;
60851;SDS011;48553;50.766;2.900;2022-10-16T16:50:34;4.57;;;1.50;;
60851;SDS011;48553;50.766;2.900;2022-10-16T16:53:36;2.83;;;1.30;;
60851;SDS011;48553;50.766;2.900;2022-10-16T16:56:36;2.67;;;1.25;;
60851;SDS011;48553;50.766;2.900;2022-10-16T16:59:37;4.05;;;1.48;;
60851;SDS011;48553;50.766;2.900;2022-10-16T17:02:37;4.35;;;1.48;;
60851;SDS011;48553;50.766;2.900;2022-10-16T17:05:43;3.17;;;1.27;;
60851;SDS011;48553;50.766;2.900;2022-10-16T17:08:43;2.03;;;1.40;;
60851;SDS011;48553;50.766;2.900;2022-10-16T17:11:43;4.10;;;1.60;;
60851;SDS011;48553;50.766;2.900;2022-10-16T17:14:45;2.40;;;1.50;;
60851;SDS011;48553;50.766;2.900;2022-10-16T17:17:46;2.80;;;1.38;;
60851;SDS011;48553;50.766;2.900;2022-10-16T17:20:46;5.05;;;1.55;;
60851;SDS011;48553;50.766;2.900;2022-10-16T17:23:50;4.20;;;1.60;;
60851;SDS011;48553;50.766;2.900;2022-10-16T17:26:51;5.15;;;1.60;;
60851;SDS011;48553;50.766;2.900;2022-10-16T17:29:52;3.20;;;1.63;;
60851;SDS011;48553;50.766;2.900;2022-10-16T17:32:52;4.70;;;1.83;;
60851;SDS011;48553;50.766;2.900;2022-10-16T17:35:53;5.13;;;1.60;;
60851;SDS011;48553;50.766;2.900;2022-10-16T17:38:53;3.15;;;1.70;;
60851;SDS011;48553;50.766;2.900;2022-10-16T17:41:54;4.55;;;1.83;;
60851;SDS011;48553;50.766;2.900;2022-10-16T17:44:54;3.50;;;1.55;;
60851;SDS011;48553;50.766;2.900;2022-10-16T17:47:55;3.67;;;1.75;;
60851;SDS011;48553;50.766;2.900;2022-10-16T17:50:57;4.72;;;1.85;;
60851;SDS011;48553;50.766;2.900;2022-10-16T17:53:58;4.28;;;1.65;;
60851;SDS011;48553;50.766;2.900;2022-10-16T17:57:00;3.53;;;1.60;;
60851;SDS011;48553;50.766;2.900;2022-10-16T18:00:00;4.90;;;1.80;;
60851;SDS011;48553;50.766;2.900;2022-10-16T18:03:01;4.90;;;1.80;;
60851;SDS011;48553;50.766;2.900;2022-10-16T18:06:02;5.05;;;2.00;;
60851;SDS011;48553;50.766;2.900;2022-10-16T18:09:04;5.35;;;1.90;;
60851;SDS011;48553;50.766;2.900;2022-10-16T18:12:06;4.55;;;1.85;;
60851;SDS011;48553;50.766;2.900;2022-10-16T18:15:07;5.15;;;1.90;;
60851;SDS011;48553;50.766;2.900;2022-10-16T18:18:09;3.55;;;1.58;;
60851;SDS011;48553;50.766;2.900;2022-10-16T18:21:11;3.17;;;1.80;;
60851;SDS011;48553;50.766;2.900;2022-10-16T18:24:13;3.15;;;1.90;;
60851;SDS011;48553;50.766;2.900;2022-10-16T18:27:14;4.95;;;1.80;;
60851;SDS011;48553;50.766;2.900;2022-10-16T18:30:15;2.90;;;1.90;;
60851;SDS011;48553;50.766;2.900;2022-10-16T18:33:15;5.20;;;2.00;;
60851;SDS011;48553;50.766;2.900;2022-10-16T18:36:17;6.40;;;2.13;;
60851;SDS011;48553;50.766;2.900;2022-10-16T18:39:19;5.57;;;1.95;;
60851;SDS011;48553;50.766;2.900;2022-10-16T18:42:22;5.88;;;2.17;;
60851;SDS011;48553;50.766;2.900;2022-10-16T18:45:22;3.53;;;2.10;;
60851;SDS011;48553;50.766;2.900;2022-10-16T18:48:23;6.53;;;2.40;;
60851;SDS011;48553;50.766;2.900;2022-10-16T18:54:27;3.63;;;2.08;;
60851;SDS011;48553;50.766;2.900;2022-10-16T18:57:30;4.22;;;2.20;;
60851;SDS011;48553;50.766;2.900;2022-10-16T19:00:31;5.28;;;2.40;;
60851;SDS011;48553;50.766;2.900;2022-10-16T19:03:33;4.25;;;2.08;;
60851;SDS011;48553;50.766;2.900;2022-10-16T19:06:35;2.75;;;2.00;;
60851;SDS011;48553;50.766;2.900;2022-10-16T19:09:37;5.05;;;2.28;;
60851;SDS011;48553;50.766;2.900;2022-10-16T19:12:37;5.13;;;2.10;;
60851;SDS011;48553;50.766;2.900;2022-10-16T19:15:40;4.88;;;2.10;;
60851;SDS011;48553;50.766;2.900;2022-10-16T19:18:42;4.13;;;2.15;;
60851;SDS011;48553;50.766;2.900;2022-10-16T19:21:42;3.83;;;2.10;;
60851;SDS011;48553;50.766;2.900;2022-10-16T19:24:43;3.85;;;1.92;;
60851;SDS011;48553;50.766;2.900;2022-10-16T19:27:43;5.25;;;2.13;;
60851;SDS011;48553;50.766;2.900;2022-10-16T19:30:44;3.45;;;1.83;;
60851;SDS011;48553;50.766;2.900;2022-10-16T19:33:45;4.22;;;1.85;;
60851;SDS011;48553;50.766;2.900;2022-10-16T19:36:46;3.42;;;1.95;;
60851;SDS011;48553;50.766;2.900;2022-10-16T19:39:48;3.25;;;2.20;;
60851;SDS011;48553;50.766;2.900;2022-10-16T19:42:49;3.67;;;2.00;;
60851;SDS011;48553;50.766;2.900;2022-10-16T19:45:49;4.40;;;1.90;;
60851;SDS011;48553;50.766;2.900;2022-10-16T19:48:54;4.53;;;2.00;;
60851;SDS011;48553;50.766;2.900;2022-10-16T19:51:56;3.88;;;1.88;;
60851;SDS011;48553;50.766;2.900;2022-10-16T19:54:57;3.15;;;1.90;;
60851;SDS011;48553;50.766;2.900;2022-10-16T19:57:57;3.55;;;1.75;;
60851;SDS011;48553;50.766;2.900;2022-10-16T20:00:58;3.05;;;1.90;;
60851;SDS011;48553;50.766;2.900;2022-10-16T20:03:58;4.55;;;1.90;;
60851;SDS011;48553;50.766;2.900;2022-10-16T20:07:00;3.30;;;1.88;;
60851;SDS011;48553;50.766;2.900;2022-10-16T20:10:00;3.92;;;1.80;;
60851;SDS011;48553;50.766;2.900;2022-10-16T20:13:01;3.92;;;1.90;;
60851;SDS011;48553;50.766;2.900;2022-10-16T20:16:02;3.00;;;1.80;;
60851;SDS011;48553;50.766;2.900;2022-10-16T20:19:03;3.35;;;2.10;;
60851;SDS011;48553;50.766;2.900;2022-10-16T20:22:04;3.15;;;2.15;;
60851;SDS011;48553;50.766;2.900;2022-10-16T20:25:05;3.45;;;2.20;;
60851;SDS011;48553;50.766;2.900;2022-10-16T20:28:05;3.80;;;2.08;;
60851;SDS011;48553;50.766;2.900;2022-10-16T20:31:08;4.63;;;2.20;;
60851;SDS011;48553;50.766;2.900;2022-10-16T20:34:16;3.88;;;2.22;;